createdAt,value
2022-09-07T00:01:20.645Z,100151.88
2022-09-07T00:03:54.484Z,100141.72
2022-09-07T00:06:23.751Z,100140.44
2022-09-07T00:08:53.545Z,100138.44
2022-09-07T00:11:21.959Z,100137.00
2022-09-07T00:13:50.634Z,100130.00
2022-09-07T00:16:30.736Z,100145.72
2022-09-07T00:19:02.087Z,100129.00
2022-09-07T00:21:31.514Z,100118.88
2022-09-07T00:24:00.642Z,100132.44
2022-09-07T00:26:31.355Z,100122.28
2022-09-07T00:29:19.183Z,100113.16
2022-09-07T00:31:47.303Z,100108.28
2022-09-07T00:34:16.589Z,100104.16
2022-09-07T00:36:45.126Z,100101.84
2022-09-07T00:39:14.296Z,100102.44
2022-09-07T00:41:42.717Z,100104.00
2022-09-07T00:44:45.012Z,100120.59
2022-09-07T00:47:20.240Z,100107.69
2022-09-07T00:49:58.653Z,100108.09
2022-09-07T00:52:28.506Z,100096.97
2022-09-07T00:55:02.714Z,100077.38
2022-09-07T00:57:31.425Z,100091.25
2022-09-07T01:00:00.241Z,100088.69
2022-09-07T01:02:28.238Z,100077.28
2022-09-07T01:05:09.588Z,100100.84
2022-09-07T01:07:37.928Z,100106.69
2022-09-07T01:10:07.746Z,100109.84
2022-09-07T01:12:35.799Z,100109.25
2022-09-07T01:15:04.873Z,100116.13
2022-09-07T01:17:47.223Z,100130.97
2022-09-07T01:20:50.608Z,100129.13
2022-09-07T01:24:15.150Z,100152.41
2022-09-07T01:27:57.075Z,100154.09
2022-09-07T01:30:25.975Z,100157.94
2022-09-07T01:33:33.531Z,100172.94
2022-09-07T01:36:13.533Z,100214.22
2022-09-07T01:38:56.624Z,100228.34
2022-09-07T01:41:54.808Z,100211.63
2022-09-07T01:44:58.307Z,100204.19
2022-09-07T01:47:46.285Z,100199.34
2022-09-07T01:50:39.394Z,100200.22
2022-09-07T01:53:24.939Z,100193.38
2022-09-07T01:56:05.207Z,100169.78
2022-09-07T01:58:56.303Z,100194.94
2022-09-07T02:01:34.039Z,100192.94
2022-09-07T02:04:31.518Z,100191.53
2022-09-07T02:07:35.857Z,100186.97
2022-09-07T02:10:35.138Z,100190.25
2022-09-07T02:13:34.987Z,100183.41
2022-09-07T02:16:29.880Z,100162.38
2022-09-07T02:19:08.167Z,100166.97
2022-09-07T02:21:48.556Z,100180.28
2022-09-07T02:24:41.809Z,100188.84
2022-09-07T02:27:22.215Z,100184.84
2022-09-07T08:34:01.887Z,100291.06
2022-09-07T08:36:31.748Z,100301.16
2022-09-07T08:39:00.201Z,100289.41
2022-09-07T08:42:12.406Z,100301.34
2022-09-07T08:45:11.856Z,100306.47
2022-09-07T08:47:50.537Z,100297.00
2022-09-07T08:50:52.197Z,100296.75
2022-09-07T08:53:21.873Z,100287.69
2022-09-07T08:56:13.991Z,100289.97
2022-09-07T08:58:51.351Z,100293.16
2022-09-07T09:01:37.586Z,100294.03
2022-09-07T09:04:20.758Z,100288.97
2022-09-07T09:07:03.397Z,100277.53
2022-09-07T09:10:05.914Z,100298.38
2022-09-07T09:13:17.147Z,100305.97
2022-09-07T09:16:00.588Z,100307.38
2022-09-07T09:18:55.504Z,100308.75
2022-09-07T09:21:23.485Z,100297.81
2022-09-07T09:23:55.367Z,100295.00
2022-09-07T09:26:30.607Z,100291.78
2022-09-07T09:28:58.706Z,100276.78
2022-09-07T09:31:36.064Z,100282.69
2022-09-07T09:34:17.694Z,100292.28
2022-09-07T09:36:55.997Z,100277.00
2022-09-07T09:39:37.696Z,100276.31
2022-09-07T09:42:11.548Z,100277.84
2022-09-07T09:44:40.099Z,100279.75
2022-09-07T09:47:30.971Z,100277.03
2022-09-07T09:53:42.789Z,100272.25
2022-09-07T09:56:10.979Z,100270.56
2022-09-07T10:01:35.446Z,100263.06
2022-09-07T10:04:34.744Z,100261.22
2022-09-07T10:07:28.442Z,100252.16
2022-09-07T10:09:56.932Z,100246.72
2022-09-07T10:12:35.746Z,100242.13
2022-09-07T10:15:08.898Z,100246.72
2022-09-07T10:17:43.359Z,100231.50
2022-09-07T10:20:16.793Z,100244.34
2022-09-07T10:22:51.948Z,100242.97
2022-09-07T10:25:41.555Z,100237.50
2022-09-07T10:28:12.866Z,100250.50
2022-09-07T10:31:31.824Z,100241.97
2022-09-07T10:34:27.329Z,100243.34
2022-09-07T10:37:05.798Z,100240.09
2022-09-07T10:39:42.931Z,100238.59
2022-09-07T10:42:33.987Z,100233.81
2022-09-07T10:45:29.083Z,100232.94
2022-09-07T10:56:16.960Z,100227.31
2022-09-07T10:59:15.774Z,100223.56
2022-09-07T11:02:03.483Z,100227.28
2022-09-07T11:04:54.634Z,100221.13
2022-09-07T11:08:05.052Z,100225.22
2022-09-07T11:11:01.757Z,100233.09
2022-09-07T11:13:50.193Z,100216.00
2022-09-07T11:16:53.716Z,100220.47
2022-09-07T11:19:55.196Z,100219.09
2022-09-07T11:22:46.595Z,100195.16
2022-09-07T11:25:30.566Z,100207.63
2022-09-07T11:28:07.630Z,100199.59
2022-09-07T11:31:00.361Z,100195.31
2022-09-07T11:33:41.291Z,100186.41
2022-09-07T11:36:16.815Z,100183.00
2022-09-07T11:39:13.043Z,100181.44
2022-09-07T11:45:22.108Z,100193.22
2022-09-07T11:48:31.184Z,100182.09
2022-09-07T11:51:08.912Z,100174.75
2022-09-07T11:53:44.140Z,100187.56
2022-09-07T11:56:37.644Z,100180.84
2022-09-07T11:59:19.638Z,100172.50
2022-09-07T12:02:58.389Z,100182.75
2022-09-07T12:06:12.743Z,100168.38
2022-09-07T12:09:09.748Z,100164.44
2022-09-07T12:11:46.777Z,100162.00
2022-09-07T12:14:42.481Z,100160.63
2022-09-07T12:17:44.359Z,100159.06
2022-09-07T12:20:14.686Z,100152.25
2022-09-07T12:23:05.945Z,100150.50
2022-09-07T12:25:34.988Z,100158.72
2022-09-07T12:28:03.277Z,100149.81
2022-09-07T12:30:32.160Z,100147.56
2022-09-07T12:33:18.526Z,100140.22
2022-09-07T12:35:46.929Z,100129.75
2022-09-07T12:38:18.650Z,100147.84
2022-09-07T12:40:58.812Z,100145.78
2022-09-07T12:43:47.012Z,100131.19
2022-09-07T12:46:35.048Z,100125.16
2022-09-07T12:49:29.749Z,100113.34
2022-09-07T12:52:45.883Z,100131.59
2022-09-07T12:59:04.964Z,100118.03
2022-09-07T13:01:44.413Z,100115.06
2022-09-07T13:04:22.938Z,100112.31
2022-09-07T13:07:27.915Z,100113.41
2022-09-07T13:09:59.243Z,100108.22
2022-09-07T13:13:00.372Z,100104.56
2022-09-07T13:16:14.453Z,100106.38
2022-09-07T13:18:47.139Z,100106.00
2022-09-07T13:21:17.413Z,100107.16
2022-09-07T13:27:11.087Z,100107.09
2022-09-07T13:29:42.151Z,100097.47
2022-09-07T13:33:07.995Z,100095.38
2022-09-07T13:35:20.595Z,100099.72
2022-09-07T13:38:01.705Z,100094.56
2022-09-07T13:40:34.412Z,100088.69
2022-09-07T13:43:04.434Z,100082.94
2022-09-07T13:45:48.511Z,100088.16
2022-09-07T13:48:37.464Z,100082.66
2022-09-07T13:51:29.681Z,100077.47
2022-09-07T13:54:21.953Z,100074.53
2022-09-07T13:57:30.776Z,100078.59
2022-09-07T13:59:59.258Z,100080.06
2022-09-07T14:02:33.493Z,100075.25
2022-09-07T14:05:04.293Z,100074.78
2022-09-07T14:07:32.513Z,100069.69
2022-09-07T14:10:13.284Z,100079.34
2022-09-07T14:12:51.344Z,100071.97
2022-09-07T14:15:45.320Z,100079.78
2022-09-07T14:18:44.376Z,100064.28
2022-09-07T14:21:19.056Z,100058.13
2022-09-07T14:23:51.397Z,100058.63
2022-09-07T14:26:23.021Z,100058.25
2022-09-07T14:28:55.146Z,100046.03
2022-09-07T14:31:25.332Z,100059.69
2022-09-07T14:33:58.278Z,100062.72
2022-09-07T14:36:45.227Z,100050.69
2022-09-07T14:39:19.454Z,100044.34
2022-09-07T14:41:48.103Z,100030.84
2022-09-07T14:44:39.012Z,100034.94
2022-09-07T14:47:29.113Z,100023.13
2022-09-07T14:50:06.010Z,100021.88
2022-09-07T14:53:33.288Z,100021.78
2022-09-07T14:55:38.186Z,100025.88
2022-09-07T14:58:14.663Z,100018.75
2022-09-07T15:00:46.275Z,100022.81
2022-09-07T15:03:51.200Z,100022.06
2022-09-07T15:09:39.726Z,100022.22
2022-09-07T15:12:33.077Z,100018.47
2022-09-07T15:15:26.583Z,99994.41
2022-09-07T15:18:04.541Z,99997.72
2022-09-07T15:20:44.064Z,100000.97
2022-09-07T15:23:19.568Z,100008.63
2022-09-07T15:25:54.250Z,100003.50
2022-09-07T15:34:16.109Z,100008.53
2022-09-07T15:36:51.312Z,100016.88
2022-09-07T15:39:28.261Z,100008.91
2022-09-07T15:42:00.160Z,100009.75
2022-09-07T15:44:46.514Z,100013.81
2022-09-07T15:50:03.355Z,100020.31
2022-09-07T15:52:35.786Z,100011.13
2022-09-07T15:55:04.289Z,100010.31
2022-09-07T16:00:20.998Z,100019.53
2022-09-07T16:03:06.800Z,100007.47
2022-09-07T16:05:35.223Z,100028.44
2022-09-07T16:10:54.238Z,100027.84
2022-09-07T16:13:24.610Z,100024.97
2022-09-07T16:15:52.591Z,100031.34
2022-09-07T16:18:20.854Z,100038.59
2022-09-07T16:20:52.587Z,100050.41
2022-09-07T16:23:21.838Z,100062.44
2022-09-07T16:25:59.056Z,100066.06
2022-09-07T16:28:28.935Z,100062.81
2022-09-07T16:30:57.431Z,100064.91
2022-09-07T16:33:33.150Z,100056.91
2022-09-07T16:36:16.282Z,100043.25
2022-09-07T16:38:48.396Z,100022.78
2022-09-07T16:41:23.165Z,100015.09
2022-09-07T16:43:51.490Z,100008.09
2022-09-07T16:46:23.932Z,99994.81
2022-09-07T16:48:54.412Z,100000.47
2022-09-07T16:51:24.897Z,100007.63
2022-09-07T16:53:58.880Z,100017.38
2022-09-07T16:56:33.695Z,100031.72
2022-09-07T16:59:08.887Z,100027.28
2022-09-07T17:01:38.293Z,100015.81
2022-09-07T17:04:10.663Z,100017.34
2022-09-07T17:06:40.304Z,100016.84
2022-09-07T17:09:10.752Z,100014.09
2022-09-07T17:11:39.127Z,100004.38
2022-09-07T17:14:07.466Z,99994.81
2022-09-07T17:16:41.054Z,99991.75
2022-09-07T17:22:01.234Z,100004.31
2022-09-07T17:24:32.203Z,100009.63
2022-09-07T17:27:01.261Z,100003.56
2022-09-07T17:29:33.888Z,100010.75
2022-09-07T17:34:55.634Z,100004.31
2022-09-07T17:37:23.849Z,100001.41
2022-09-07T17:39:52.174Z,100011.13
2022-09-07T17:42:22.653Z,100013.88
2022-09-07T17:44:53.996Z,100008.91
2022-09-07T17:47:23.402Z,100006.31
2022-09-07T17:49:51.951Z,100010.22
2022-09-07T17:52:19.972Z,100007.50
2022-09-07T17:54:48.147Z,100008.19
2022-09-07T17:57:17.038Z,100016.22
2022-09-07T18:02:38.764Z,100035.97
2022-09-07T18:05:07.504Z,100040.72
2022-09-07T18:07:35.326Z,100049.25
2022-09-07T18:10:03.369Z,100049.75
2022-09-07T18:12:33.022Z,100057.56
2022-09-07T18:15:01.287Z,100067.41
2022-09-07T18:17:30.175Z,100084.44
2022-09-07T18:19:58.841Z,100090.69
2022-09-07T18:22:30.549Z,100083.13
2022-09-07T18:25:00.685Z,100110.22
2022-09-07T18:27:28.631Z,100078.44
2022-09-07T18:29:57.022Z,100088.78
2022-09-07T18:32:26.265Z,100076.13
2022-09-07T18:34:54.671Z,100064.00
2022-09-07T18:37:22.881Z,100041.84
2022-09-07T18:39:51.015Z,100033.16
2022-09-07T18:42:19.025Z,100030.19
2022-09-07T18:47:39.953Z,100011.66
2022-09-07T18:50:11.434Z,100021.88
2022-09-07T18:53:04.131Z,100044.38
2022-09-07T18:55:28.654Z,100049.97
2022-09-07T18:57:57.233Z,100053.88
2022-09-07T19:00:26.333Z,100046.31
2022-09-07T19:02:55.864Z,100040.34
2022-09-07T19:08:15.315Z,100019.19
2022-09-07T19:10:44.863Z,100007.88
2022-09-07T19:13:14.401Z,100004.63
2022-09-07T19:15:42.971Z,100010.13
2022-09-07T19:18:12.190Z,100008.00
2022-09-07T19:20:41.278Z,99998.06
2022-09-07T19:23:09.612Z,100010.53
2022-09-07T19:25:45.045Z,100021.72
2022-09-07T19:28:13.476Z,100025.81
2022-09-07T19:30:42.020Z,100021.84
2022-09-07T19:33:12.821Z,100009.84
2022-09-07T19:35:41.666Z,100010.16
2022-09-07T19:38:10.373Z,100009.59
2022-09-07T19:40:39.865Z,100002.59
2022-09-07T19:43:08.963Z,99999.16
2022-09-07T19:45:41.631Z,99998.31
2022-09-07T19:48:09.759Z,99987.75
2022-09-07T19:50:38.538Z,99973.03
2022-09-07T19:53:08.470Z,99977.88
2022-09-07T19:55:36.785Z,99977.03
2022-09-07T19:58:06.048Z,99959.03
2022-09-07T20:00:34.606Z,99947.16
2022-09-07T20:03:03.143Z,99937.16
2022-09-07T20:05:32.226Z,99941.13
2022-09-07T20:08:01.520Z,99947.56
2022-09-07T20:10:32.922Z,99942.97
2022-09-07T20:13:01.067Z,99922.94
2022-09-07T20:15:29.970Z,99912.59
2022-09-07T20:17:59.356Z,99905.84
2022-09-07T20:20:27.212Z,99909.13
2022-09-07T20:22:55.059Z,99908.81
2022-09-07T20:25:23.764Z,99911.53
2022-09-07T20:27:51.540Z,99905.13
2022-09-07T20:30:19.468Z,99902.69
2022-09-07T20:32:51.723Z,99901.66
2022-09-07T20:35:20.156Z,99895.53
2022-09-07T20:37:48.817Z,99881.91
2022-09-07T20:40:17.026Z,99886.03
2022-09-07T20:42:46.187Z,99880.75
2022-09-07T20:45:14.643Z,99875.47
2022-09-07T20:47:44.814Z,99865.44
2022-09-07T20:50:12.728Z,99871.03
2022-09-07T20:52:41.410Z,99870.03
2022-09-07T20:55:09.887Z,99865.94
2022-09-07T20:57:38.044Z,99873.91
2022-09-07T21:00:11.156Z,99872.22
2022-09-07T21:02:39.366Z,99867.91
2022-09-07T21:05:09.440Z,99863.22
2022-09-07T21:07:41.710Z,99857.06
2022-09-07T21:10:10.375Z,99865.38
2022-09-07T21:12:38.485Z,99872.66
2022-09-07T21:15:08.931Z,99874.53
2022-09-07T21:17:36.773Z,99870.97
2022-09-07T21:20:05.851Z,99869.22
2022-09-07T21:22:33.502Z,99869.94
2022-09-07T21:25:02.241Z,99879.94
2022-09-07T21:27:38.084Z,99885.50
2022-09-07T21:30:07.514Z,99893.25
2022-09-07T21:32:35.350Z,99899.53
2022-09-07T21:35:03.132Z,99905.16
2022-09-07T21:37:31.775Z,99898.72
2022-09-07T21:40:01.490Z,99901.88
2022-09-07T21:42:30.486Z,99905.75
2022-09-07T21:44:59.578Z,99895.19
2022-09-07T21:47:27.696Z,99903.91
2022-09-07T21:49:55.876Z,99898.19
2022-09-07T21:52:24.351Z,99898.72
2022-09-07T21:54:53.928Z,99906.19
2022-09-07T21:57:22.306Z,99900.75
2022-09-07T21:59:50.439Z,99894.63
2022-09-07T22:02:18.752Z,99902.28
2022-09-07T22:04:47.286Z,99898.59
2022-09-07T22:07:15.350Z,99895.16
2022-09-07T22:09:43.837Z,99892.88
2022-09-07T22:12:11.603Z,99893.47
2022-09-07T22:14:39.838Z,99892.59
2022-09-07T22:17:09.581Z,99902.44
2022-09-07T22:19:39.634Z,99897.19
2022-09-07T22:22:08.539Z,99888.63
2022-09-07T22:24:36.281Z,99895.06
2022-09-07T22:27:05.038Z,99889.75
2022-09-07T22:29:33.385Z,99872.53
2022-09-07T22:32:01.395Z,99875.69
2022-09-07T22:34:29.603Z,99880.66
2022-09-07T22:36:57.406Z,99874.34
2022-09-07T22:39:25.634Z,99886.94
2022-09-07T22:41:53.796Z,99879.78
2022-09-07T22:44:21.999Z,99872.53
2022-09-07T22:46:50.563Z,99879.78
2022-09-07T22:49:29.576Z,99894.66
2022-09-07T22:51:57.961Z,99899.34
2022-09-07T22:54:25.756Z,99914.34
2022-09-07T22:56:53.628Z,99908.91
2022-09-07T22:59:22.374Z,99919.19
2022-09-07T23:01:50.725Z,99946.31
2022-09-07T23:04:18.631Z,99961.31
2022-09-07T23:06:46.913Z,99947.06
2022-09-07T23:09:18.290Z,99941.75
2022-09-07T23:11:48.722Z,99941.31
2022-09-07T23:14:20.310Z,99938.63
2022-09-07T23:16:49.047Z,99921.03
2022-09-07T23:19:19.767Z,99925.94
2022-09-07T23:21:48.085Z,99922.66
2022-09-07T23:24:18.500Z,99918.94
2022-09-07T23:26:46.973Z,99912.66
2022-09-07T23:29:15.849Z,99905.38
2022-09-07T23:31:47.263Z,99905.09
2022-09-07T23:34:15.809Z,99903.69
2022-09-07T23:36:43.606Z,99898.25
2022-09-07T23:39:11.408Z,99909.78
2022-09-07T23:41:40.345Z,99893.69
2022-09-07T23:44:09.513Z,99873.50
2022-09-07T23:46:37.853Z,99876.22
2022-09-07T23:49:06.285Z,99885.50
2022-09-07T23:51:34.459Z,99872.53
2022-09-07T23:54:02.832Z,99880.50
2022-09-07T23:56:33.014Z,99877.81
2022-09-07T23:59:01.158Z,99869.25
